sensor_id;sensor_type;location;lat;lon;timestamp;P1;durP1;ratioP1;P2;durP2;ratioP2
80776;SDS011;70169;51.262;6.336;2023-08-01T00:01:02;0.38;;;0.10;;
80776;SDS011;70169;51.262;6.336;2023-08-01T00:03:18;0.83;;;0.27;;
80776;SDS011;70169;51.262;6.336;2023-08-01T00:05:33;0.10;;;0.10;;
80776;SDS011;70169;51.262;6.336;2023-08-01T00:07:49;0.68;;;0.30;;
80776;SDS011;70169;51.262;6.336;2023-08-01T00:10:04;0.90;;;0.30;;
80776;SDS011;70169;51.262;6.336;2023-08-01T00:12:20;0.32;;;0.20;;
80776;SDS011;70169;51.262;6.336;2023-08-01T00:14:36;0.65;;;0.30;;
80776;SDS011;70169;51.262;6.336;2023-08-01T00:16:51;0.50;;;0.17;;
80776;SDS011;70169;51.262;6.336;2023-08-01T00:19:07;0.28;;;0.10;;
80776;SDS011;70169;51.262;6.336;2023-08-01T00:21:22;0.43;;;0.17;;
80776;SDS011;70169;51.262;6.336;2023-08-01T00:23:37;0.40;;;0.20;;
80776;SDS011;70169;51.262;6.336;2023-08-01T00:25:53;0.25;;;0.10;;
80776;SDS011;70169;51.262;6.336;2023-08-01T00:28:08;0.73;;;0.20;;
80776;SDS011;70169;51.262;6.336;2023-08-01T00:30:23;0.33;;;0.10;;
80776;SDS011;70169;51.262;6.336;2023-08-01T00:32:39;0.80;;;0.30;;
80776;SDS011;70169;51.262;6.336;2023-08-01T00:34:54;0.40;;;0.20;;
80776;SDS011;70169;51.262;6.336;2023-08-01T00:37:10;0.40;;;0.17;;
80776;SDS011;70169;51.262;6.336;2023-08-01T00:39:26;0.43;;;0.20;;
80776;SDS011;70169;51.262;6.336;2023-08-01T00:41:41;0.70;;;0.37;;
80776;SDS011;70169;51.262;6.336;2023-08-01T00:43:56;0.80;;;0.30;;
80776;SDS011;70169;51.262;6.336;2023-08-01T00:46:12;0.90;;;0.30;;
80776;SDS011;70169;51.262;6.336;2023-08-01T00:48:28;0.55;;;0.25;;
80776;SDS011;70169;51.262;6.336;2023-08-01T00:50:44;1.13;;;0.60;;
80776;SDS011;70169;51.262;6.336;2023-08-01T00:53:00;1.85;;;0.70;;
80776;SDS011;70169;51.262;6.336;2023-08-01T00:55:16;1.42;;;0.60;;
80776;SDS011;70169;51.262;6.336;2023-08-01T00:57:31;1.63;;;0.73;;
80776;SDS011;70169;51.262;6.336;2023-08-01T00:59:47;1.40;;;0.70;;
80776;SDS011;70169;51.262;6.336;2023-08-01T01:02:02;2.50;;;0.80;;
80776;SDS011;70169;51.262;6.336;2023-08-01T01:04:18;1.50;;;0.80;;
80776;SDS011;70169;51.262;6.336;2023-08-01T01:08:58;1.20;;;0.65;;
80776;SDS011;70169;51.262;6.336;2023-08-01T01:11:14;1.58;;;0.80;;
80776;SDS011;70169;51.262;6.336;2023-08-01T01:13:29;1.60;;;0.80;;
80776;SDS011;70169;51.262;6.336;2023-08-01T01:15:44;1.35;;;0.57;;
80776;SDS011;70169;51.262;6.336;2023-08-01T01:18:00;4.13;;;1.03;;
80776;SDS011;70169;51.262;6.336;2023-08-01T01:20:20;1.90;;;1.00;;
80776;SDS011;70169;51.262;6.336;2023-08-01T01:22:39;2.00;;;1.02;;
80776;SDS011;70169;51.262;6.336;2023-08-01T01:27:12;1.95;;;1.02;;
80776;SDS011;70169;51.262;6.336;2023-08-01T01:29:27;1.92;;;1.08;;
80776;SDS011;70169;51.262;6.336;2023-08-01T01:31:44;1.73;;;0.88;;
80776;SDS011;70169;51.262;6.336;2023-08-01T01:34:00;2.35;;;1.15;;
80776;SDS011;70169;51.262;6.336;2023-08-01T01:36:16;2.10;;;0.90;;
80776;SDS011;70169;51.262;6.336;2023-08-01T01:38:32;1.77;;;0.83;;
80776;SDS011;70169;51.262;6.336;2023-08-01T01:40:47;2.33;;;1.07;;
80776;SDS011;70169;51.262;6.336;2023-08-01T01:43:02;3.70;;;1.40;;
80776;SDS011;70169;51.262;6.336;2023-08-01T01:45:17;2.93;;;1.90;;
80776;SDS011;70169;51.262;6.336;2023-08-01T01:47:33;3.47;;;2.07;;
80776;SDS011;70169;51.262;6.336;2023-08-01T01:49:48;3.43;;;2.30;;
80776;SDS011;70169;51.262;6.336;2023-08-01T01:52:03;3.30;;;2.23;;
80776;SDS011;70169;51.262;6.336;2023-08-01T01:54:19;5.07;;;2.42;;
80776;SDS011;70169;51.262;6.336;2023-08-01T01:56:35;4.10;;;2.33;;
80776;SDS011;70169;51.262;6.336;2023-08-01T01:58:50;3.70;;;2.10;;
80776;SDS011;70169;51.262;6.336;2023-08-01T02:01:06;3.43;;;2.20;;
80776;SDS011;70169;51.262;6.336;2023-08-01T02:03:21;3.90;;;2.53;;
80776;SDS011;70169;51.262;6.336;2023-08-01T02:05:36;5.03;;;3.37;;
80776;SDS011;70169;51.262;6.336;2023-08-01T02:07:52;5.18;;;3.97;;
80776;SDS011;70169;51.262;6.336;2023-08-01T02:10:07;4.83;;;3.30;;
80776;SDS011;70169;51.262;6.336;2023-08-01T02:12:23;4.72;;;3.15;;
80776;SDS011;70169;51.262;6.336;2023-08-01T02:14:38;6.63;;;3.40;;
80776;SDS011;70169;51.262;6.336;2023-08-01T02:16:53;5.23;;;3.43;;
80776;SDS011;70169;51.262;6.336;2023-08-01T02:19:09;6.13;;;3.93;;
80776;SDS011;70169;51.262;6.336;2023-08-01T02:21:24;4.73;;;3.67;;
80776;SDS011;70169;51.262;6.336;2023-08-01T02:23:39;6.17;;;4.20;;
80776;SDS011;70169;51.262;6.336;2023-08-01T02:25:55;6.35;;;4.55;;
80776;SDS011;70169;51.262;6.336;2023-08-01T02:28:10;5.80;;;4.40;;
80776;SDS011;70169;51.262;6.336;2023-08-01T02:30:25;5.47;;;4.07;;
80776;SDS011;70169;51.262;6.336;2023-08-01T02:32:40;5.97;;;4.50;;
80776;SDS011;70169;51.262;6.336;2023-08-01T02:34:58;7.32;;;5.20;;
80776;SDS011;70169;51.262;6.336;2023-08-01T02:37:13;8.80;;;4.45;;
80776;SDS011;70169;51.262;6.336;2023-08-01T02:39:29;6.53;;;4.67;;
80776;SDS011;70169;51.262;6.336;2023-08-01T02:41:44;6.97;;;5.03;;
80776;SDS011;70169;51.262;6.336;2023-08-01T02:43:59;8.43;;;4.70;;
80776;SDS011;70169;51.262;6.336;2023-08-01T02:46:15;9.20;;;6.27;;
80776;SDS011;70169;51.262;6.336;2023-08-01T02:48:30;9.53;;;6.17;;
80776;SDS011;70169;51.262;6.336;2023-08-01T02:50:45;11.03;;;5.80;;
80776;SDS011;70169;51.262;6.336;2023-08-01T02:53:01;8.60;;;5.97;;
80776;SDS011;70169;51.262;6.336;2023-08-01T02:55:16;9.00;;;5.53;;
80776;SDS011;70169;51.262;6.336;2023-08-01T02:57:31;11.30;;;6.13;;
80776;SDS011;70169;51.262;6.336;2023-08-01T02:59:46;8.93;;;5.70;;
80776;SDS011;70169;51.262;6.336;2023-08-01T03:02:02;10.17;;;6.47;;
80776;SDS011;70169;51.262;6.336;2023-08-01T03:04:17;10.82;;;5.78;;
80776;SDS011;70169;51.262;6.336;2023-08-01T03:06:33;9.02;;;5.60;;
80776;SDS011;70169;51.262;6.336;2023-08-01T03:08:48;8.02;;;5.68;;
80776;SDS011;70169;51.262;6.336;2023-08-01T03:11:04;12.00;;;6.20;;
80776;SDS011;70169;51.262;6.336;2023-08-01T03:13:20;8.93;;;5.13;;
80776;SDS011;70169;51.262;6.336;2023-08-01T03:15:35;9.18;;;5.20;;
80776;SDS011;70169;51.262;6.336;2023-08-01T03:17:50;8.13;;;5.00;;
80776;SDS011;70169;51.262;6.336;2023-08-01T03:20:06;8.07;;;5.37;;
80776;SDS011;70169;51.262;6.336;2023-08-01T03:22:25;8.90;;;5.78;;
80776;SDS011;70169;51.262;6.336;2023-08-01T03:24:40;9.13;;;5.60;;
80776;SDS011;70169;51.262;6.336;2023-08-01T03:26:56;10.98;;;6.13;;
80776;SDS011;70169;51.262;6.336;2023-08-01T03:29:11;9.00;;;6.03;;
80776;SDS011;70169;51.262;6.336;2023-08-01T03:31:27;11.87;;;7.67;;
80776;SDS011;70169;51.262;6.336;2023-08-01T03:33:42;13.82;;;7.70;;
80776;SDS011;70169;51.262;6.336;2023-08-01T03:35:57;12.80;;;7.90;;
80776;SDS011;70169;51.262;6.336;2023-08-01T03:38:13;12.17;;;8.20;;
80776;SDS011;70169;51.262;6.336;2023-08-01T03:40:28;12.55;;;8.70;;
80776;SDS011;70169;51.262;6.336;2023-08-01T03:42:43;13.13;;;9.40;;
80776;SDS011;70169;51.262;6.336;2023-08-01T03:44:59;14.55;;;9.38;;
80776;SDS011;70169;51.262;6.336;2023-08-01T03:47:14;13.48;;;8.85;;
80776;SDS011;70169;51.262;6.336;2023-08-01T03:49:30;14.63;;;9.27;;
80776;SDS011;70169;51.262;6.336;2023-08-01T03:51:45;12.20;;;8.07;;
80776;SDS011;70169;51.262;6.336;2023-08-01T03:54:00;16.33;;;9.88;;
80776;SDS011;70169;51.262;6.336;2023-08-01T03:56:16;14.80;;;9.53;;
80776;SDS011;70169;51.262;6.336;2023-08-01T03:58:31;12.40;;;8.87;;
80776;SDS011;70169;51.262;6.336;2023-08-01T04:00:46;17.67;;;10.70;;
80776;SDS011;70169;51.262;6.336;2023-08-01T04:03:02;16.63;;;9.70;;
80776;SDS011;70169;51.262;6.336;2023-08-01T04:05:17;16.27;;;10.00;;
80776;SDS011;70169;51.262;6.336;2023-08-01T04:07:33;17.58;;;12.05;;
80776;SDS011;70169;51.262;6.336;2023-08-01T04:09:48;16.70;;;10.90;;
80776;SDS011;70169;51.262;6.336;2023-08-01T04:12:03;17.87;;;10.97;;
80776;SDS011;70169;51.262;6.336;2023-08-01T04:14:21;17.85;;;11.20;;
80776;SDS011;70169;51.262;6.336;2023-08-01T04:16:36;16.13;;;10.10;;
80776;SDS011;70169;51.262;6.336;2023-08-01T04:18:52;12.90;;;8.13;;
80776;SDS011;70169;51.262;6.336;2023-08-01T04:21:07;19.93;;;11.33;;
80776;SDS011;70169;51.262;6.336;2023-08-01T04:23:23;16.65;;;9.65;;
80776;SDS011;70169;51.262;6.336;2023-08-01T04:25:40;16.13;;;9.27;;
80776;SDS011;70169;51.262;6.336;2023-08-01T04:27:55;14.65;;;9.55;;
80776;SDS011;70169;51.262;6.336;2023-08-01T04:30:11;13.30;;;8.87;;
80776;SDS011;70169;51.262;6.336;2023-08-01T04:32:27;17.48;;;9.68;;
80776;SDS011;70169;51.262;6.336;2023-08-01T04:34:42;14.13;;;9.03;;
80776;SDS011;70169;51.262;6.336;2023-08-01T04:36:57;15.30;;;10.57;;
80776;SDS011;70169;51.262;6.336;2023-08-01T04:39:13;16.45;;;9.93;;
80776;SDS011;70169;51.262;6.336;2023-08-01T04:41:28;16.23;;;9.40;;
80776;SDS011;70169;51.262;6.336;2023-08-01T04:43:43;14.67;;;8.60;;
80776;SDS011;70169;51.262;6.336;2023-08-01T04:45:58;16.47;;;10.07;;
80776;SDS011;70169;51.262;6.336;2023-08-01T04:48:14;15.73;;;9.80;;
80776;SDS011;70169;51.262;6.336;2023-08-01T04:50:29;16.02;;;8.63;;
80776;SDS011;70169;51.262;6.336;2023-08-01T04:52:44;13.27;;;9.03;;
80776;SDS011;70169;51.262;6.336;2023-08-01T04:55:00;13.85;;;8.60;;
80776;SDS011;70169;51.262;6.336;2023-08-01T04:57:15;14.23;;;8.83;;
80776;SDS011;70169;51.262;6.336;2023-08-01T04:59:30;12.27;;;7.53;;
80776;SDS011;70169;51.262;6.336;2023-08-01T05:01:46;12.87;;;7.57;;
80776;SDS011;70169;51.262;6.336;2023-08-01T05:04:05;12.60;;;8.80;;
80776;SDS011;70169;51.262;6.336;2023-08-01T05:06:21;11.88;;;7.68;;
80776;SDS011;70169;51.262;6.336;2023-08-01T05:08:36;16.03;;;8.80;;
80776;SDS011;70169;51.262;6.336;2023-08-01T05:10:51;14.80;;;8.67;;
80776;SDS011;70169;51.262;6.336;2023-08-01T05:13:07;12.70;;;7.82;;
80776;SDS011;70169;51.262;6.336;2023-08-01T05:15:22;12.73;;;7.00;;
80776;SDS011;70169;51.262;6.336;2023-08-01T05:17:37;13.17;;;7.43;;
80776;SDS011;70169;51.262;6.336;2023-08-01T05:19:52;10.90;;;6.73;;
80776;SDS011;70169;51.262;6.336;2023-08-01T05:22:08;11.07;;;6.57;;
80776;SDS011;70169;51.262;6.336;2023-08-01T05:24:23;12.40;;;6.27;;
80776;SDS011;70169;51.262;6.336;2023-08-01T05:26:38;10.10;;;7.23;;
80776;SDS011;70169;51.262;6.336;2023-08-01T05:28:54;11.00;;;6.70;;
80776;SDS011;70169;51.262;6.336;2023-08-01T05:31:09;9.40;;;6.00;;
80776;SDS011;70169;51.262;6.336;2023-08-01T05:33:25;11.45;;;6.60;;
80776;SDS011;70169;51.262;6.336;2023-08-01T05:35:40;10.17;;;6.00;;
80776;SDS011;70169;51.262;6.336;2023-08-01T05:37:56;14.05;;;7.55;;
80776;SDS011;70169;51.262;6.336;2023-08-01T05:40:11;10.93;;;6.03;;
80776;SDS011;70169;51.262;6.336;2023-08-01T05:42:27;12.30;;;6.80;;
80776;SDS011;70169;51.262;6.336;2023-08-01T05:44:42;9.53;;;6.07;;
80776;SDS011;70169;51.262;6.336;2023-08-01T05:47:10;8.30;;;5.63;;
80776;SDS011;70169;51.262;6.336;2023-08-01T05:49:25;9.88;;;5.20;;
80776;SDS011;70169;51.262;6.336;2023-08-01T05:51:40;10.75;;;5.57;;
80776;SDS011;70169;51.262;6.336;2023-08-01T05:53:56;12.32;;;6.00;;
80776;SDS011;70169;51.262;6.336;2023-08-01T05:56:11;13.27;;;5.97;;
80776;SDS011;70169;51.262;6.336;2023-08-01T05:58:27;10.65;;;5.45;;
80776;SDS011;70169;51.262;6.336;2023-08-01T06:00:42;9.40;;;5.60;;
80776;SDS011;70169;51.262;6.336;2023-08-01T06:02:57;9.93;;;5.32;;
80776;SDS011;70169;51.262;6.336;2023-08-01T06:05:13;9.50;;;5.37;;
80776;SDS011;70169;51.262;6.336;2023-08-01T06:07:28;11.93;;;6.27;;
80776;SDS011;70169;51.262;6.336;2023-08-01T06:09:43;12.63;;;6.53;;
80776;SDS011;70169;51.262;6.336;2023-08-01T06:11:59;8.67;;;5.03;;
80776;SDS011;70169;51.262;6.336;2023-08-01T06:14:14;13.63;;;5.67;;
80776;SDS011;70169;51.262;6.336;2023-08-01T06:16:30;9.73;;;5.47;;
80776;SDS011;70169;51.262;6.336;2023-08-01T06:18:45;9.70;;;6.03;;
80776;SDS011;70169;51.262;6.336;2023-08-01T06:21:01;14.13;;;6.77;;
80776;SDS011;70169;51.262;6.336;2023-08-01T06:23:17;10.77;;;5.32;;
80776;SDS011;70169;51.262;6.336;2023-08-01T06:25:32;13.98;;;6.55;;
80776;SDS011;70169;51.262;6.336;2023-08-01T06:27:48;13.20;;;6.47;;
80776;SDS011;70169;51.262;6.336;2023-08-01T06:30:03;15.13;;;6.73;;
80776;SDS011;70169;51.262;6.336;2023-08-01T06:32:19;12.38;;;6.63;;
80776;SDS011;70169;51.262;6.336;2023-08-01T06:34:35;8.83;;;5.70;;
80776;SDS011;70169;51.262;6.336;2023-08-01T06:36:50;11.15;;;6.45;;
80776;SDS011;70169;51.262;6.336;2023-08-01T06:39:06;9.63;;;5.72;;
80776;SDS011;70169;51.262;6.336;2023-08-01T06:41:21;13.10;;;6.53;;
80776;SDS011;70169;51.262;6.336;2023-08-01T06:43:36;15.50;;;7.27;;
80776;SDS011;70169;51.262;6.336;2023-08-01T06:45:54;13.32;;;6.55;;
80776;SDS011;70169;51.262;6.336;2023-08-01T06:48:09;9.27;;;5.87;;
80776;SDS011;70169;51.262;6.336;2023-08-01T06:50:25;12.70;;;7.13;;
80776;SDS011;70169;51.262;6.336;2023-08-01T06:52:40;9.90;;;5.80;;
80776;SDS011;70169;51.262;6.336;2023-08-01T06:54:55;15.03;;;7.43;;
80776;SDS011;70169;51.262;6.336;2023-08-01T06:57:11;14.00;;;6.70;;
80776;SDS011;70169;51.262;6.336;2023-08-01T06:59:26;9.88;;;5.68;;
80776;SDS011;70169;51.262;6.336;2023-08-01T07:01:42;14.77;;;7.40;;
80776;SDS011;70169;51.262;6.336;2023-08-01T07:03:58;11.10;;;6.68;;
80776;SDS011;70169;51.262;6.336;2023-08-01T07:06:13;15.13;;;7.07;;
80776;SDS011;70169;51.262;6.336;2023-08-01T07:08:29;10.60;;;7.07;;
80776;SDS011;70169;51.262;6.336;2023-08-01T07:10:45;11.53;;;7.10;;
80776;SDS011;70169;51.262;6.336;2023-08-01T07:13:02;13.63;;;7.35;;
80776;SDS011;70169;51.262;6.336;2023-08-01T07:15:20;12.52;;;7.00;;
80776;SDS011;70169;51.262;6.336;2023-08-01T07:17:36;12.00;;;6.57;;
80776;SDS011;70169;51.262;6.336;2023-08-01T07:19:51;10.90;;;5.90;;
80776;SDS011;70169;51.262;6.336;2023-08-01T07:22:06;10.97;;;6.13;;
80776;SDS011;70169;51.262;6.336;2023-08-01T07:24:22;8.73;;;6.17;;
80776;SDS011;70169;51.262;6.336;2023-08-01T07:26:37;11.33;;;7.03;;
80776;SDS011;70169;51.262;6.336;2023-08-01T07:28:52;13.03;;;6.80;;
80776;SDS011;70169;51.262;6.336;2023-08-01T07:31:07;11.07;;;5.80;;
80776;SDS011;70169;51.262;6.336;2023-08-01T07:33:23;11.70;;;5.93;;
80776;SDS011;70169;51.262;6.336;2023-08-01T07:35:38;10.70;;;6.20;;
80776;SDS011;70169;51.262;6.336;2023-08-01T07:37:53;9.27;;;5.17;;
80776;SDS011;70169;51.262;6.336;2023-08-01T07:40:09;12.50;;;6.20;;
80776;SDS011;70169;51.262;6.336;2023-08-01T07:42:25;9.02;;;5.53;;
80776;SDS011;70169;51.262;6.336;2023-08-01T07:44:40;8.70;;;5.43;;
80776;SDS011;70169;51.262;6.336;2023-08-01T07:46:56;9.23;;;5.27;;
80776;SDS011;70169;51.262;6.336;2023-08-01T07:49:12;10.23;;;6.07;;
80776;SDS011;70169;51.262;6.336;2023-08-01T07:51:27;7.70;;;5.20;;
80776;SDS011;70169;51.262;6.336;2023-08-01T07:53:43;11.90;;;5.65;;
80776;SDS011;70169;51.262;6.336;2023-08-01T07:55:58;8.68;;;5.10;;
80776;SDS011;70169;51.262;6.336;2023-08-01T07:58:15;10.48;;;5.60;;
80776;SDS011;70169;51.262;6.336;2023-08-01T08:00:30;10.52;;;5.20;;
80776;SDS011;70169;51.262;6.336;2023-08-01T08:02:46;10.53;;;5.90;;
80776;SDS011;70169;51.262;6.336;2023-08-01T08:05:01;11.18;;;5.70;;
80776;SDS011;70169;51.262;6.336;2023-08-01T08:07:17;10.15;;;6.03;;
80776;SDS011;70169;51.262;6.336;2023-08-01T08:09:32;7.85;;;5.07;;
80776;SDS011;70169;51.262;6.336;2023-08-01T08:11:48;9.57;;;5.00;;
80776;SDS011;70169;51.262;6.336;2023-08-01T08:14:03;8.93;;;4.93;;
80776;SDS011;70169;51.262;6.336;2023-08-01T08:16:18;8.03;;;4.93;;
80776;SDS011;70169;51.262;6.336;2023-08-01T08:18:34;8.63;;;4.50;;
80776;SDS011;70169;51.262;6.336;2023-08-01T08:20:49;8.87;;;4.97;;
80776;SDS011;70169;51.262;6.336;2023-08-01T08:23:04;8.20;;;5.07;;
80776;SDS011;70169;51.262;6.336;2023-08-01T08:25:20;7.47;;;4.57;;
80776;SDS011;70169;51.262;6.336;2023-08-01T08:27:35;6.07;;;4.33;;
80776;SDS011;70169;51.262;6.336;2023-08-01T08:29:50;7.50;;;4.47;;
80776;SDS011;70169;51.262;6.336;2023-08-01T08:32:06;9.53;;;5.07;;
80776;SDS011;70169;51.262;6.336;2023-08-01T08:34:22;8.45;;;4.63;;
80776;SDS011;70169;51.262;6.336;2023-08-01T08:36:37;10.10;;;4.90;;
80776;SDS011;70169;51.262;6.336;2023-08-01T08:38:53;6.80;;;4.35;;
80776;SDS011;70169;51.262;6.336;2023-08-01T08:43:26;8.70;;;4.47;;
80776;SDS011;70169;51.262;6.336;2023-08-01T08:45:41;8.20;;;4.75;;
80776;SDS011;70169;51.262;6.336;2023-08-01T08:47:59;7.93;;;4.80;;
80776;SDS011;70169;51.262;6.336;2023-08-01T08:50:17;9.27;;;4.80;;
80776;SDS011;70169;51.262;6.336;2023-08-01T08:52:33;7.72;;;4.50;;
80776;SDS011;70169;51.262;6.336;2023-08-01T08:54:49;7.50;;;4.63;;
80776;SDS011;70169;51.262;6.336;2023-08-01T08:57:05;8.10;;;4.55;;
80776;SDS011;70169;51.262;6.336;2023-08-01T08:59:24;9.23;;;4.40;;
80776;SDS011;70169;51.262;6.336;2023-08-01T09:01:40;12.32;;;4.90;;
80776;SDS011;70169;51.262;6.336;2023-08-01T09:03:55;8.57;;;4.70;;
80776;SDS011;70169;51.262;6.336;2023-08-01T09:08:30;22.45;;;7.68;;
80776;SDS011;70169;51.262;6.336;2023-08-01T09:10:50;14.15;;;5.25;;
80776;SDS011;70169;51.262;6.336;2023-08-01T09:13:07;8.15;;;4.10;;
80776;SDS011;70169;51.262;6.336;2023-08-01T09:15:23;10.45;;;5.05;;
80776;SDS011;70169;51.262;6.336;2023-08-01T09:17:51;7.68;;;4.68;;
80776;SDS011;70169;51.262;6.336;2023-08-01T09:20:15;10.30;;;4.18;;
80776;SDS011;70169;51.262;6.336;2023-08-01T09:22:30;7.07;;;4.30;;
80776;SDS011;70169;51.262;6.336;2023-08-01T09:24:56;8.63;;;4.53;;
80776;SDS011;70169;51.262;6.336;2023-08-01T09:27:11;8.53;;;4.07;;
80776;SDS011;70169;51.262;6.336;2023-08-01T09:29:27;7.30;;;4.28;;
80776;SDS011;70169;51.262;6.336;2023-08-01T09:31:42;7.68;;;4.43;;
80776;SDS011;70169;51.262;6.336;2023-08-01T09:33:58;7.82;;;4.22;;
80776;SDS011;70169;51.262;6.336;2023-08-01T09:36:20;10.55;;;4.68;;
80776;SDS011;70169;51.262;6.336;2023-08-01T09:38:37;7.50;;;4.13;;
80776;SDS011;70169;51.262;6.336;2023-08-01T09:40:52;6.97;;;3.80;;
80776;SDS011;70169;51.262;6.336;2023-08-01T09:43:08;6.53;;;4.30;;
80776;SDS011;70169;51.262;6.336;2023-08-01T09:45:24;7.03;;;4.40;;
80776;SDS011;70169;51.262;6.336;2023-08-01T09:47:39;7.03;;;4.00;;
80776;SDS011;70169;51.262;6.336;2023-08-01T09:49:55;7.30;;;4.13;;
80776;SDS011;70169;51.262;6.336;2023-08-01T09:52:11;7.22;;;3.80;;
80776;SDS011;70169;51.262;6.336;2023-08-01T09:54:26;6.70;;;4.30;;
80776;SDS011;70169;51.262;6.336;2023-08-01T09:56:43;8.23;;;4.50;;
80776;SDS011;70169;51.262;6.336;2023-08-01T09:59:00;9.13;;;4.25;;
80776;SDS011;70169;51.262;6.336;2023-08-01T10:01:16;7.43;;;4.53;;
80776;SDS011;70169;51.262;6.336;2023-08-01T10:03:33;8.18;;;4.30;;
80776;SDS011;70169;51.262;6.336;2023-08-01T10:05:49;7.28;;;3.85;;
80776;SDS011;70169;51.262;6.336;2023-08-01T10:08:08;6.75;;;4.00;;
80776;SDS011;70169;51.262;6.336;2023-08-01T10:10:23;10.77;;;4.23;;
80776;SDS011;70169;51.262;6.336;2023-08-01T10:12:42;8.23;;;4.28;;
80776;SDS011;70169;51.262;6.336;2023-08-01T10:15:00;7.30;;;4.35;;
80776;SDS011;70169;51.262;6.336;2023-08-01T10:17:16;7.80;;;3.85;;
80776;SDS011;70169;51.262;6.336;2023-08-01T10:19:32;9.68;;;4.03;;
80776;SDS011;70169;51.262;6.336;2023-08-01T10:21:50;6.90;;;4.10;;
80776;SDS011;70169;51.262;6.336;2023-08-01T10:24:06;6.43;;;3.95;;
80776;SDS011;70169;51.262;6.336;2023-08-01T10:26:22;7.35;;;4.13;;
80776;SDS011;70169;51.262;6.336;2023-08-01T10:28:39;8.98;;;4.20;;
80776;SDS011;70169;51.262;6.336;2023-08-01T10:31:06;8.07;;;4.07;;
80776;SDS011;70169;51.262;6.336;2023-08-01T10:33:34;8.30;;;3.92;;
80776;SDS011;70169;51.262;6.336;2023-08-01T10:35:50;11.48;;;3.97;;
80776;SDS011;70169;51.262;6.336;2023-08-01T10:38:08;7.78;;;4.03;;
80776;SDS011;70169;51.262;6.336;2023-08-01T10:40:32;5.72;;;3.35;;
80776;SDS011;70169;51.262;6.336;2023-08-01T10:42:48;7.07;;;3.53;;
80776;SDS011;70169;51.262;6.336;2023-08-01T10:45:05;8.00;;;3.60;;
80776;SDS011;70169;51.262;6.336;2023-08-01T10:47:27;7.18;;;3.97;;
80776;SDS011;70169;51.262;6.336;2023-08-01T10:49:43;6.50;;;3.60;;
80776;SDS011;70169;51.262;6.336;2023-08-01T10:51:59;8.27;;;3.80;;
80776;SDS011;70169;51.262;6.336;2023-08-01T10:54:21;7.03;;;3.87;;
80776;SDS011;70169;51.262;6.336;2023-08-01T10:56:37;6.50;;;3.17;;
80776;SDS011;70169;51.262;6.336;2023-08-01T10:58:52;4.77;;;2.73;;
80776;SDS011;70169;51.262;6.336;2023-08-01T11:01:08;4.53;;;2.70;;
80776;SDS011;70169;51.262;6.336;2023-08-01T11:03:33;5.77;;;3.03;;
80776;SDS011;70169;51.262;6.336;2023-08-01T11:05:56;5.05;;;3.00;;
80776;SDS011;70169;51.262;6.336;2023-08-01T11:08:12;7.40;;;2.95;;
80776;SDS011;70169;51.262;6.336;2023-08-01T11:10:31;5.50;;;2.60;;
80776;SDS011;70169;51.262;6.336;2023-08-01T11:12:47;5.90;;;3.15;;
80776;SDS011;70169;51.262;6.336;2023-08-01T11:15:03;5.63;;;3.30;;
80776;SDS011;70169;51.262;6.336;2023-08-01T11:17:21;6.53;;;3.33;;
80776;SDS011;70169;51.262;6.336;2023-08-01T11:19:36;5.97;;;3.10;;
80776;SDS011;70169;51.262;6.336;2023-08-01T11:21:52;5.57;;;3.23;;
80776;SDS011;70169;51.262;6.336;2023-08-01T11:24:08;5.60;;;3.35;;
80776;SDS011;70169;51.262;6.336;2023-08-01T11:26:24;5.03;;;3.15;;
80776;SDS011;70169;51.262;6.336;2023-08-01T11:28:39;5.35;;;3.13;;
80776;SDS011;70169;51.262;6.336;2023-08-01T11:30:55;7.43;;;3.38;;
80776;SDS011;70169;51.262;6.336;2023-08-01T11:35:36;5.13;;;2.97;;
80776;SDS011;70169;51.262;6.336;2023-08-01T11:37:52;5.93;;;3.03;;
80776;SDS011;70169;51.262;6.336;2023-08-01T11:40:07;4.97;;;2.90;;
80776;SDS011;70169;51.262;6.336;2023-08-01T11:42:23;4.85;;;2.80;;
80776;SDS011;70169;51.262;6.336;2023-08-01T11:44:38;6.40;;;3.00;;
80776;SDS011;70169;51.262;6.336;2023-08-01T11:46:54;5.13;;;3.17;;
80776;SDS011;70169;51.262;6.336;2023-08-01T11:49:09;5.10;;;2.75;;
80776;SDS011;70169;51.262;6.336;2023-08-01T11:51:29;5.22;;;2.40;;
80776;SDS011;70169;51.262;6.336;2023-08-01T11:53:45;3.47;;;1.90;;
80776;SDS011;70169;51.262;6.336;2023-08-01T11:56:00;4.60;;;2.13;;
80776;SDS011;70169;51.262;6.336;2023-08-01T11:58:15;4.30;;;2.17;;
80776;SDS011;70169;51.262;6.336;2023-08-01T12:00:31;3.93;;;1.93;;
80776;SDS011;70169;51.262;6.336;2023-08-01T12:02:46;4.67;;;1.97;;
80776;SDS011;70169;51.262;6.336;2023-08-01T12:05:01;4.63;;;2.00;;
80776;SDS011;70169;51.262;6.336;2023-08-01T12:07:17;5.68;;;2.60;;
80776;SDS011;70169;51.262;6.336;2023-08-01T12:09:33;4.47;;;2.50;;
80776;SDS011;70169;51.262;6.336;2023-08-01T12:11:57;5.95;;;2.40;;
80776;SDS011;70169;51.262;6.336;2023-08-01T12:14:14;5.88;;;2.58;;
80776;SDS011;70169;51.262;6.336;2023-08-01T12:16:30;4.93;;;2.42;;
80776;SDS011;70169;51.262;6.336;2023-08-01T12:18:46;7.38;;;2.78;;
80776;SDS011;70169;51.262;6.336;2023-08-01T12:23:20;7.05;;;2.58;;
80776;SDS011;70169;51.262;6.336;2023-08-01T12:25:36;7.43;;;3.20;;
80776;SDS011;70169;51.262;6.336;2023-08-01T12:27:51;6.60;;;2.80;;
80776;SDS011;70169;51.262;6.336;2023-08-01T12:30:07;4.53;;;2.63;;
80776;SDS011;70169;51.262;6.336;2023-08-01T12:32:22;5.40;;;2.45;;
80776;SDS011;70169;51.262;6.336;2023-08-01T12:34:38;6.90;;;3.10;;
80776;SDS011;70169;51.262;6.336;2023-08-01T12:36:53;8.27;;;2.93;;
80776;SDS011;70169;51.262;6.336;2023-08-01T12:39:08;6.40;;;3.30;;
80776;SDS011;70169;51.262;6.336;2023-08-01T12:41:25;7.28;;;3.08;;
80776;SDS011;70169;51.262;6.336;2023-08-01T12:43:41;5.73;;;2.87;;
80776;SDS011;70169;51.262;6.336;2023-08-01T12:45:56;6.00;;;3.00;;
80776;SDS011;70169;51.262;6.336;2023-08-01T12:48:13;8.70;;;3.58;;
80776;SDS011;70169;51.262;6.336;2023-08-01T12:50:28;6.20;;;2.85;;
80776;SDS011;70169;51.262;6.336;2023-08-01T12:52:44;6.72;;;2.90;;
80776;SDS011;70169;51.262;6.336;2023-08-01T12:54:59;8.17;;;2.80;;
80776;SDS011;70169;51.262;6.336;2023-08-01T12:57:14;7.87;;;3.03;;
80776;SDS011;70169;51.262;6.336;2023-08-01T12:59:30;7.45;;;2.55;;
80776;SDS011;70169;51.262;6.336;2023-08-01T13:01:45;6.50;;;3.03;;
80776;SDS011;70169;51.262;6.336;2023-08-01T13:04:00;7.80;;;3.10;;
80776;SDS011;70169;51.262;6.336;2023-08-01T13:06:16;8.83;;;2.90;;
80776;SDS011;70169;51.262;6.336;2023-08-01T13:10:47;4.30;;;2.53;;
80776;SDS011;70169;51.262;6.336;2023-08-01T13:13:04;6.47;;;2.63;;
80776;SDS011;70169;51.262;6.336;2023-08-01T13:15:20;7.25;;;2.72;;
80776;SDS011;70169;51.262;6.336;2023-08-01T13:17:35;5.90;;;2.70;;
80776;SDS011;70169;51.262;6.336;2023-08-01T13:19:51;4.83;;;2.30;;
80776;SDS011;70169;51.262;6.336;2023-08-01T13:22:06;5.00;;;2.30;;
80776;SDS011;70169;51.262;6.336;2023-08-01T13:24:21;4.82;;;2.20;;
80776;SDS011;70169;51.262;6.336;2023-08-01T13:26:37;6.13;;;2.40;;
80776;SDS011;70169;51.262;6.336;2023-08-01T13:28:52;5.53;;;2.55;;
80776;SDS011;70169;51.262;6.336;2023-08-01T13:31:08;5.93;;;2.07;;
80776;SDS011;70169;51.262;6.336;2023-08-01T13:33:23;5.40;;;2.20;;
80776;SDS011;70169;51.262;6.336;2023-08-01T13:35:38;5.00;;;2.20;;
80776;SDS011;70169;51.262;6.336;2023-08-01T13:37:53;7.17;;;2.20;;
80776;SDS011;70169;51.262;6.336;2023-08-01T13:40:09;4.83;;;2.23;;
80776;SDS011;70169;51.262;6.336;2023-08-01T13:42:26;4.70;;;2.17;;
80776;SDS011;70169;51.262;6.336;2023-08-01T13:44:42;7.20;;;2.50;;
80776;SDS011;70169;51.262;6.336;2023-08-01T13:46:57;5.33;;;2.30;;
80776;SDS011;70169;51.262;6.336;2023-08-01T13:49:13;5.50;;;2.50;;
80776;SDS011;70169;51.262;6.336;2023-08-01T13:51:30;5.32;;;2.20;;